createdAt,value
2019-02-19T00:02:20.778Z,47.17
2019-02-19T00:07:25.514Z,52.93
2019-02-19T00:12:31.260Z,52.97
2019-02-19T00:17:35.919Z,34.97
2019-02-19T00:22:40.666Z,44.20
2019-02-19T00:27:45.301Z,47.20
2019-02-19T00:32:51.748Z,44.87
2019-02-19T00:37:56.529Z,40.53
2019-02-19T00:43:01.275Z,39.83
2019-02-19T00:48:06.017Z,34.63
2019-02-19T00:53:10.755Z,35.23
2019-02-19T00:58:15.300Z,33.67
2019-02-19T01:03:19.937Z,34.77
2019-02-19T01:08:24.680Z,32.27
2019-02-19T01:13:29.422Z,32.70
2019-02-19T01:18:33.976Z,32.07
2019-02-19T01:23:38.703Z,31.67
2019-02-19T01:28:43.441Z,35.37
2019-02-19T01:33:48.189Z,36.80
2019-02-19T01:38:52.828Z,31.87
2019-02-19T01:43:57.568Z,30.80
2019-02-19T01:49:03.847Z,32.60
2019-02-19T01:54:08.700Z,34.30
2019-02-19T01:59:13.331Z,30.47
2019-02-19T02:04:17.974Z,31.53
2019-02-19T02:09:22.603Z,33.97
2019-02-19T02:14:27.354Z,31.53
2019-02-19T02:19:31.996Z,34.27
2019-02-19T02:24:36.735Z,45.40
2019-02-19T02:29:43.100Z,35.63
2019-02-19T02:34:47.751Z,35.33
2019-02-19T02:39:52.507Z,32.97
2019-02-19T02:44:57.242Z,31.80
2019-02-19T02:50:01.988Z,30.53
2019-02-19T02:55:06.940Z,30.47
2019-02-19T03:00:13.419Z,28.90
2019-02-19T03:05:18.160Z,30.57
2019-02-19T03:10:22.907Z,26.40
2019-02-19T03:15:27.644Z,27.80
2019-02-19T03:20:32.385Z,28.83
2019-02-19T03:25:37.134Z,30.70
2019-02-19T03:30:43.619Z,43.60
2019-02-19T03:35:48.147Z,44.67
2019-02-19T03:40:52.720Z,67.50
2019-02-19T03:45:57.428Z,37.50
2019-02-19T03:51:02.068Z,36.47
2019-02-19T03:56:06.724Z,37.43
2019-02-19T04:01:11.350Z,36.70
2019-02-19T04:06:16.010Z,67.87
2019-02-19T04:11:20.734Z,42.83
2019-02-19T04:16:25.303Z,91.87
2019-02-19T04:21:30.125Z,49.63
2019-02-19T04:26:34.880Z,38.83
2019-02-19T04:31:39.491Z,55.20
2019-02-19T04:36:44.243Z,65.87
2019-02-19T04:41:48.985Z,55.50
2019-02-19T04:46:54.612Z,92.27
2019-02-19T04:51:59.389Z,106.03
2019-02-19T04:57:06.083Z,132.27
2019-02-19T05:02:10.828Z,92.97
2019-02-19T05:07:15.563Z,56.90
2019-02-19T05:12:20.309Z,57.73
2019-02-19T05:17:25.153Z,115.63
2019-02-19T05:22:29.893Z,83.27
2019-02-19T05:27:34.526Z,78.37
2019-02-19T05:32:39.275Z,44.43
2019-02-19T05:37:44.019Z,48.40
2019-02-19T05:42:50.065Z,44.33
2019-02-19T05:47:54.853Z,44.63
2019-02-19T05:52:59.580Z,50.07
2019-02-19T05:58:05.415Z,61.17
2019-02-19T06:03:12.085Z,49.97
2019-02-19T06:08:17.412Z,45.83
2019-02-19T06:13:23.288Z,62.40
2019-02-19T06:18:28.409Z,67.53
2019-02-19T06:23:33.153Z,91.60
2019-02-19T06:28:37.892Z,117.67
2019-02-19T06:33:43.511Z,111.80
2019-02-19T06:38:48.304Z,189.60
2019-02-19T06:43:53.064Z,188.37
2019-02-19T06:48:57.789Z,178.93
2019-02-19T06:54:02.528Z,204.17
2019-02-19T06:59:07.278Z,180.30
2019-02-19T07:04:19.695Z,128.30
2019-02-19T07:09:24.438Z,172.83
2019-02-19T07:14:29.176Z,97.57
2019-02-19T07:19:33.920Z,128.00
2019-02-19T07:24:38.781Z,132.53
2019-02-19T07:29:44.533Z,135.97
2019-02-19T07:34:49.385Z,219.77
2019-02-19T07:39:54.129Z,245.93
2019-02-19T07:44:58.775Z,211.97
2019-02-19T07:50:05.778Z,149.53
2019-02-19T07:55:10.854Z,144.43
2019-02-19T08:00:15.559Z,117.00
2019-02-19T08:05:20.290Z,113.40
2019-02-19T08:10:25.042Z,96.23
2019-02-19T08:15:29.782Z,77.87
2019-02-19T08:20:34.419Z,71.80
2019-02-19T08:25:39.273Z,77.70
2019-02-19T08:30:44.214Z,78.07
2019-02-19T08:35:50.406Z,67.33
2019-02-19T08:40:55.263Z,69.33
2019-02-19T08:46:03.051Z,63.17
2019-02-19T08:51:07.790Z,62.40
2019-02-19T08:56:12.950Z,70.43
2019-02-19T09:01:17.586Z,64.30
2019-02-19T09:06:23.255Z,62.70
2019-02-19T09:11:27.889Z,51.73
2019-02-19T09:16:33.732Z,61.90
2019-02-19T09:21:38.501Z,59.47
2019-02-19T09:26:43.249Z,42.40
2019-02-19T09:31:47.990Z,51.40
2019-02-19T09:36:52.640Z,50.77
2019-02-19T09:41:58.297Z,40.13
2019-02-19T09:47:02.940Z,45.87
2019-02-19T09:52:07.578Z,39.27
2019-02-19T09:57:12.216Z,35.47
2019-02-19T10:02:17.840Z,32.00
2019-02-19T10:07:22.624Z,31.73
2019-02-19T10:12:28.394Z,41.70
2019-02-19T10:17:33.135Z,34.60
2019-02-19T10:22:37.779Z,35.60
2019-02-19T10:27:43.696Z,48.07
2019-02-19T10:32:48.386Z,26.93
2019-02-19T10:37:54.673Z,31.97
2019-02-19T10:42:59.324Z,26.10
2019-02-19T10:48:04.363Z,25.97
2019-02-19T10:53:08.950Z,25.57
2019-02-19T10:58:22.317Z,26.00
2019-02-19T11:03:19.929Z,23.17
2019-02-19T11:08:24.519Z,12.73
2019-02-19T11:13:29.416Z,24.27
2019-02-19T11:18:35.752Z,14.17
2019-02-19T11:23:40.436Z,13.33
2019-02-19T11:28:45.200Z,18.53
2019-02-19T11:33:50.943Z,13.33
2019-02-19T11:38:55.790Z,13.60
2019-02-19T11:44:00.361Z,11.27
2019-02-19T11:49:05.071Z,13.33
2019-02-19T11:54:09.719Z,14.33
2019-02-19T11:59:16.247Z,9.00
2019-02-19T12:04:22.272Z,10.90
2019-02-19T12:09:26.986Z,22.67
2019-02-19T12:14:31.764Z,41.63
2019-02-19T12:19:38.349Z,21.63
2019-02-19T12:24:43.094Z,11.80
2019-02-19T12:29:49.478Z,11.57
2019-02-19T12:34:54.981Z,8.73
2019-02-19T12:39:59.792Z,9.63
2019-02-19T12:45:04.934Z,12.77
2019-02-19T12:50:17.264Z,12.10
2019-02-19T12:55:21.999Z,11.20
2019-02-19T13:00:26.582Z,10.10
2019-02-19T13:05:31.290Z,6.97
2019-02-19T13:10:36.104Z,9.17
2019-02-19T13:15:42.613Z,8.77
2019-02-19T13:20:48.276Z,8.57
2019-02-19T13:25:53.021Z,10.53
2019-02-19T13:30:58.126Z,7.63
2019-02-19T13:36:02.923Z,13.50
2019-02-19T13:41:07.661Z,9.90
2019-02-19T13:46:13.260Z,10.97
2019-02-19T13:51:18.215Z,22.30
2019-02-19T13:56:23.019Z,17.53
2019-02-19T14:01:27.664Z,41.20
2019-02-19T14:06:32.301Z,63.10
2019-02-19T14:11:39.853Z,23.63
2019-02-19T14:16:47.646Z,78.73
2019-02-19T14:22:04.661Z,164.90
2019-02-19T14:27:29.062Z,10.77
2019-02-19T14:32:38.126Z,11.47
2019-02-19T14:37:53.092Z,19.73
2019-02-19T14:43:08.696Z,15.77
2019-02-19T14:48:31.461Z,21.50
2019-02-19T14:53:37.736Z,27.30
2019-02-19T14:58:52.925Z,36.23
2019-02-19T15:04:15.488Z,20.80
2019-02-19T15:09:31.184Z,26.70
2019-02-19T15:14:43.303Z,26.57
2019-02-19T15:19:56.853Z,30.97
2019-02-19T15:25:20.643Z,30.17
2019-02-19T15:30:43.719Z,40.33
2019-02-19T15:35:55.744Z,44.10
2019-02-19T15:41:18.704Z,44.40
2019-02-19T15:46:25.086Z,38.33
2019-02-19T15:51:47.744Z,35.83
2019-02-19T15:56:56.790Z,37.07
2019-02-19T16:02:11.819Z,48.37
2019-02-19T16:07:18.159Z,56.57
2019-02-19T16:12:24.432Z,88.43
2019-02-19T16:17:39.933Z,84.03
2019-02-19T16:23:02.700Z,45.93
2019-02-19T16:28:12.363Z,41.53
2019-02-19T16:33:21.612Z,40.30
2019-02-19T16:38:44.378Z,44.90
2019-02-19T16:44:07.440Z,48.57
2019-02-19T16:49:16.949Z,50.93
2019-02-19T16:54:23.793Z,62.57
2019-02-19T16:59:45.635Z,45.57
2019-02-19T17:04:58.062Z,34.83
2019-02-19T17:10:10.099Z,21.50
2019-02-19T17:15:25.673Z,31.50
2019-02-19T17:20:32.358Z,32.83
2019-02-19T17:25:50.342Z,27.87
2019-02-19T17:31:02.538Z,29.90
2019-02-19T17:36:22.233Z,45.43
2019-02-19T17:41:31.577Z,35.27
2019-02-19T17:46:53.214Z,41.80
2019-02-19T17:52:00.173Z,55.10
2019-02-19T17:57:09.674Z,61.17
2019-02-19T18:02:31.822Z,77.47
2019-02-19T18:07:41.384Z,81.73
2019-02-19T18:12:50.755Z,57.00
2019-02-19T18:18:04.939Z,73.03
2019-02-19T18:23:11.376Z,82.47
2019-02-19T18:28:16.085Z,104.87
2019-02-19T18:33:24.061Z,84.07
2019-02-19T18:38:28.877Z,79.73
2019-02-19T18:43:34.749Z,72.53
2019-02-19T18:48:40.824Z,94.23
2019-02-19T18:53:45.994Z,67.27
2019-02-19T18:58:51.139Z,85.67
2019-02-19T19:03:57.222Z,93.03
2019-02-19T19:09:04.589Z,88.23
2019-02-19T19:14:10.488Z,71.37
2019-02-19T19:19:16.740Z,65.43
2019-02-19T19:24:23.421Z,95.03
2019-02-19T19:29:27.880Z,112.57
2019-02-19T19:34:33.110Z,102.90
2019-02-19T19:39:39.513Z,104.83
2019-02-19T19:44:44.272Z,105.43
2019-02-19T19:49:49.101Z,115.53
2019-02-19T19:54:53.957Z,83.47
2019-02-19T19:59:59.509Z,86.83
2019-02-19T20:05:06.093Z,106.83
2019-02-19T20:10:12.795Z,103.40
2019-02-19T20:15:17.629Z,106.17
2019-02-19T20:20:23.825Z,93.97
2019-02-19T20:25:28.645Z,87.47
2019-02-19T20:30:34.001Z,96.20
2019-02-19T20:35:38.849Z,99.53
2019-02-19T20:40:45.233Z,120.93
2019-02-19T20:45:50.075Z,111.87
2019-02-19T20:50:56.586Z,89.50
2019-02-19T20:56:01.309Z,95.23
2019-02-19T21:01:08.816Z,86.90
2019-02-19T21:06:13.880Z,75.07
2019-02-19T21:11:20.166Z,76.87
2019-02-19T21:16:25.424Z,80.33
2019-02-19T21:21:30.266Z,72.70
2019-02-19T21:26:38.097Z,68.70
2019-02-19T21:31:43.345Z,69.40
2019-02-19T21:36:47.917Z,64.40
2019-02-19T21:41:53.568Z,60.13
2019-02-19T21:46:58.461Z,58.13
2019-02-19T21:52:04.198Z,62.93
2019-02-19T21:57:09.021Z,57.93
2019-02-19T22:02:16.601Z,62.83
2019-02-19T22:07:21.540Z,64.10
2019-02-19T22:12:26.762Z,51.43
2019-02-19T22:17:31.839Z,61.43
2019-02-19T22:22:37.952Z,51.50
2019-02-19T22:27:43.197Z,56.17
2019-02-19T22:32:49.563Z,53.87
2019-02-19T22:37:54.533Z,78.57
2019-02-19T22:42:59.231Z,54.23
2019-02-19T22:48:03.976Z,68.50
2019-02-19T22:53:10.457Z,65.93
2019-02-19T22:58:15.454Z,60.77
2019-02-19T23:03:21.722Z,82.50
2019-02-19T23:08:31.379Z,69.60
2019-02-19T23:13:38.745Z,77.10
2019-02-19T23:18:45.223Z,62.03
2019-02-19T23:23:50.819Z,53.60
2019-02-19T23:28:55.533Z,59.40
2019-02-19T23:34:00.272Z,52.60
2019-02-19T23:39:06.261Z,58.47
2019-02-19T23:44:13.037Z,61.23
2019-02-19T23:49:18.665Z,61.23
2019-02-19T23:54:23.346Z,54.37
2019-02-19T23:59:28.098Z,48.33
